Time;durP1;ratioP1;P1;durP2;ratioP2;P2;SDS_P1;SDS_P2;PMS_P1;PMS_P2;Temp;Humidity;BMP_temperature;BMP_pressure;BME280_temperature;BME280_humidity;BME280_pressure;Samples;Min_cycle;Max_cycle;Signal;HPM_P1;HPM_P2
2021/11/26 00:00:07;;;;;;;30.58;20.35;;;1.70;99.90;;;;;;5074828;28;20551;-66
2021/11/26 00:02:34;;;;;;;33.03;18.85;;;1.70;99.90;;;;;;5074574;28;20214;-69
2021/11/26 00:05:02;;;;;;;35.97;21.35;;;1.70;99.90;;;;;;5074820;28;20204;-69
2021/11/26 00:07:30;;;;;;;33.75;19.80;;;1.70;99.90;;;;;;5074680;28;20208;-68
2021/11/26 00:09:56;;;;;;;31.55;20.52;;;1.70;99.90;;;;;;5074891;28;20224;-68
2021/11/26 00:12:23;;;;;;;30.02;18.73;;;1.70;99.90;;;;;;5074946;28;20563;-68
2021/11/26 00:17:20;;;;;;;32.53;20.27;;;1.70;99.90;;;;;;5074605;28;20260;-67
2021/11/26 00:19:47;;;;;;;30.70;19.40;;;1.70;99.90;;;;;;5072513;28;20234;-68
2021/11/26 00:22:15;;;;;;;34.70;20.75;;;1.70;99.90;;;;;;5074862;28;20256;-68
2021/11/26 00:24:42;;;;;;;29.65;20.05;;;1.70;99.90;;;;;;5074401;28;20207;-68
2021/11/26 00:27:09;;;;;;;27.40;18.40;;;1.70;99.90;;;;;;5073988;28;20227;-68
2021/11/26 00:29:36;;;;;;;38.83;21.10;;;1.70;99.90;;;;;;5073584;28;20207;-68
2021/11/26 00:32:03;;;;;;;29.30;20.13;;;1.70;99.90;;;;;;5074497;28;20210;-68
2021/11/26 00:34:29;;;;;;;30.20;18.35;;;1.80;99.90;;;;;;5074158;28;20199;-69
2021/11/26 00:36:56;;;;;;;37.40;19.73;;;1.80;99.90;;;;;;5073697;28;20647;-68
2021/11/26 00:39:22;;;;;;;36.75;22.35;;;1.80;99.90;;;;;;5073850;28;20200;-68
2021/11/26 00:41:49;;;;;;;29.20;19.15;;;1.80;99.90;;;;;;5072414;28;20682;-68
2021/11/26 00:44:15;;;;;;;33.33;20.23;;;1.80;99.90;;;;;;5074003;28;20260;-69
2021/11/26 00:46:42;;;;;;;32.40;20.75;;;1.70;99.90;;;;;;5072247;28;20214;-68
2021/11/26 00:49:08;;;;;;;32.22;19.30;;;1.80;99.90;;;;;;5072299;28;20300;-68
2021/11/26 00:51:35;;;;;;;34.72;21.85;;;1.80;99.90;;;;;;5073479;28;20212;-69
2021/11/26 00:54:01;;;;;;;31.80;20.70;;;1.90;99.90;;;;;;5073419;28;20223;-68
2021/11/26 00:56:28;;;;;;;31.05;19.40;;;1.90;99.90;;;;;;5073713;28;20210;-67
2021/11/26 00:58:55;;;;;;;32.75;19.25;;;1.80;99.90;;;;;;5073221;28;20200;-68
2021/11/26 01:01:21;;;;;;;31.65;19.05;;;1.70;99.90;;;;;;5073338;28;20203;-68
2021/11/26 01:03:47;;;;;;;32.67;20.42;;;1.70;99.90;;;;;;5073629;28;20215;-68
2021/11/26 01:06:14;;;;;;;32.10;18.70;;;1.70;99.90;;;;;;5073506;28;20265;-68
2021/11/26 01:08:40;;;;;;;30.77;20.52;;;1.70;99.90;;;;;;5073547;28;20199;-67
2021/11/26 01:11:07;;;;;;;30.33;20.30;;;1.70;99.90;;;;;;5073133;28;20224;-67
2021/11/26 01:13:34;;;;;;;31.23;19.30;;;1.60;99.90;;;;;;5072152;28;20589;-68
2021/11/26 01:16:00;;;;;;;34.17;19.52;;;1.70;99.90;;;;;;5073202;28;20242;-67
2021/11/26 01:18:27;;;;;;;28.73;18.08;;;1.70;99.90;;;;;;5073648;28;20199;-67
2021/11/26 01:20:53;;;;;;;31.20;19.60;;;1.80;99.90;;;;;;5073223;28;20206;-67
2021/11/26 01:23:20;;;;;;;29.98;18.63;;;1.90;99.90;;;;;;5073516;28;20257;-67
2021/11/26 01:25:46;;;;;;;32.00;17.63;;;1.80;99.90;;;;;;5073474;28;20257;-67
2021/11/26 01:28:13;;;;;;;26.08;17.95;;;1.80;99.90;;;;;;5073497;28;20203;-67
2021/11/26 01:30:45;;;;;;;29.73;19.13;;;1.80;99.90;;;;;;5073123;28;20223;-68
2021/11/26 01:33:13;;;;;;;26.50;17.95;;;1.90;99.90;;;;;;5073370;28;20214;-67
2021/11/26 01:35:40;;;;;;;30.23;18.30;;;1.90;99.90;;;;;;5072063;28;20202;-67
2021/11/26 01:38:08;;;;;;;31.67;18.77;;;1.90;99.90;;;;;;5073323;28;20204;-67
2021/11/26 01:40:37;;;;;;;27.90;18.08;;;1.90;99.90;;;;;;5073050;28;20204;-67
2021/11/26 01:43:06;;;;;;;30.02;18.88;;;1.90;99.90;;;;;;5072938;28;20614;-67
2021/11/26 01:45:47;;;;;;;27.90;17.10;;;1.80;99.90;;;;;;5073082;28;20555;-67
2021/11/26 01:48:14;;;;;;;30.17;18.60;;;1.80;99.90;;;;;;5073146;28;20200;-67
2021/11/26 01:50:41;;;;;;;31.65;19.05;;;2.00;99.90;;;;;;5072535;28;20651;-67
2021/11/26 01:53:08;;;;;;;29.30;18.00;;;2.00;99.90;;;;;;5071793;28;20729;-67
2021/11/26 01:55:34;;;;;;;33.22;20.00;;;2.00;99.90;;;;;;5071110;28;20575;-67
2021/11/26 01:58:01;;;;;;;22.17;15.63;;;2.00;99.90;;;;;;5071522;28;20199;-67
2021/11/26 02:00:34;;;;;;;31.75;18.58;;;2.00;99.90;;;;;;5071352;28;20212;-68
2021/11/26 02:03:00;;;;;;;27.13;17.92;;;2.00;99.90;;;;;;5072950;28;20189;-67
2021/11/26 02:05:27;;;;;;;26.40;17.95;;;1.90;99.90;;;;;;5072847;28;20211;-67
2021/11/26 02:07:54;;;;;;;31.25;18.90;;;1.90;99.90;;;;;;5072429;28;20200;-68
2021/11/26 02:10:20;;;;;;;25.77;17.98;;;2.00;99.90;;;;;;5072679;28;20224;-68
2021/11/26 02:12:47;;;;;;;30.88;18.75;;;2.00;99.90;;;;;;5072540;28;20685;-68
2021/11/26 02:15:20;;;;;;;28.25;18.80;;;2.00;99.90;;;;;;5076520;28;20196;-68
2021/11/26 02:17:48;;;;;;;29.75;18.88;;;2.00;99.90;;;;;;5077041;28;20563;-68
2021/11/26 02:20:17;;;;;;;28.23;18.02;;;2.00;99.90;;;;;;5076673;28;20203;-68
2021/11/26 02:22:44;;;;;;;28.75;17.80;;;2.10;99.90;;;;;;5076173;28;20207;-68
2021/11/26 02:25:11;;;;;;;25.17;16.58;;;2.10;99.90;;;;;;5076449;28;20200;-68
2021/11/26 02:27:38;;;;;;;29.13;17.80;;;2.10;99.90;;;;;;5076233;28;20200;-68
2021/11/26 02:30:19;;;;;;;27.05;17.80;;;2.10;99.90;;;;;;5075756;28;20246;-68
2021/11/26 02:32:53;;;;;;;29.63;18.42;;;2.10;99.90;;;;;;5075885;28;20188;-70
2021/11/26 02:35:20;;;;;;;30.73;19.80;;;2.10;99.90;;;;;;5076354;28;20606;-68
2021/11/26 02:37:48;;;;;;;25.45;17.10;;;2.10;99.90;;;;;;5076076;28;20200;-68
2021/11/26 02:40:17;;;;;;;27.15;16.85;;;2.10;99.90;;;;;;5075872;28;20211;-68
2021/11/26 02:42:44;;;;;;;26.85;17.90;;;2.10;99.90;;;;;;5076291;28;20204;-68
2021/11/26 02:45:12;;;;;;;26.25;17.85;;;2.10;99.90;;;;;;5075957;28;20667;-68
2021/11/26 02:47:40;;;;;;;26.27;17.83;;;2.10;99.90;;;;;;5075858;28;20529;-68
2021/11/26 02:50:09;;;;;;;29.40;17.48;;;2.10;99.90;;;;;;5075372;28;20228;-68
2021/11/26 02:52:37;;;;;;;25.25;17.13;;;2.10;99.90;;;;;;5075754;28;20204;-68
2021/11/26 02:55:06;;;;;;;32.92;18.10;;;2.00;99.90;;;;;;5074642;28;20234;-68
2021/11/26 02:57:32;;;;;;;29.58;17.35;;;2.00;99.90;;;;;;5075982;28;20203;-68
2021/11/26 02:59:59;;;;;;;32.47;20.20;;;1.90;99.90;;;;;;5075891;28;20196;-68
2021/11/26 03:02:26;;;;;;;32.35;19.40;;;2.00;99.90;;;;;;5075841;28;20208;-68
2021/11/26 03:04:52;;;;;;;26.40;17.27;;;2.00;99.90;;;;;;5075873;28;20207;-68
2021/11/26 03:07:19;;;;;;;29.60;18.05;;;1.90;99.90;;;;;;5075894;28;20208;-68
2021/11/26 03:09:45;;;;;;;36.63;20.75;;;1.90;99.90;;;;;;5075487;28;20204;-68
2021/11/26 03:12:12;;;;;;;31.90;19.83;;;2.00;99.90;;;;;;5075580;28;20220;-68
2021/11/26 03:14:39;;;;;;;29.58;18.60;;;1.90;99.90;;;;;;5075675;28;20200;-68
2021/11/26 03:17:05;;;;;;;30.33;18.00;;;1.90;99.90;;;;;;5073894;28;20215;-68
2021/11/26 03:19:32;;;;;;;32.00;19.42;;;1.80;99.90;;;;;;5075396;28;20265;-68
2021/11/26 03:21:58;;;;;;;34.08;20.63;;;1.70;99.90;;;;;;5075414;28;20241;-68
2021/11/26 03:24:25;;;;;;;33.30;19.33;;;1.60;99.90;;;;;;5074778;28;20200;-68
2021/11/26 03:26:51;;;;;;;36.72;21.20;;;1.50;99.90;;;;;;5073179;28;20620;-68
2021/11/26 03:29:18;;;;;;;31.70;18.27;;;1.50;99.90;;;;;;5075023;28;20570;-68
2021/11/26 03:31:45;;;;;;;34.42;20.88;;;1.40;99.90;;;;;;5075232;28;20242;-68
2021/11/26 03:34:11;;;;;;;37.58;23.40;;;1.40;99.90;;;;;;5074740;28;20195;-68
2021/11/26 03:36:37;;;;;;;58.55;36.30;;;1.40;99.90;;;;;;5074922;28;20307;-68
2021/11/26 03:39:05;;;;;;;43.05;21.65;;;1.30;99.90;;;;;;5074931;28;20253;-68
2021/11/26 03:41:32;;;;;;;42.00;24.50;;;1.40;99.90;;;;;;5074783;28;20204;-68
2021/11/26 03:43:58;;;;;;;114.40;63.08;;;1.30;99.90;;;;;;5074743;28;20207;-68
2021/11/26 03:46:25;;;;;;;175.73;95.50;;;1.40;99.90;;;;;;5075009;28;20204;-68
2021/11/26 03:48:52;;;;;;;187.45;100.38;;;1.40;99.90;;;;;;5074627;28;20210;-68
2021/11/26 03:51:18;;;;;;;123.80;70.25;;;1.40;99.90;;;;;;5074388;28;20257;-68
2021/11/26 03:53:45;;;;;;;44.30;26.67;;;1.50;99.90;;;;;;5074279;28;20223;-68
2021/11/26 03:56:11;;;;;;;31.25;19.17;;;1.50;99.90;;;;;;5074273;28;20241;-68
2021/11/26 03:58:38;;;;;;;27.67;17.00;;;1.50;99.90;;;;;;5074348;28;20200;-68
2021/11/26 04:01:04;;;;;;;36.17;22.13;;;1.50;99.90;;;;;;5075006;28;20204;-68
2021/11/26 04:03:31;;;;;;;31.63;18.85;;;1.40;99.90;;;;;;5074723;28;20204;-68
2021/11/26 04:05:57;;;;;;;30.40;19.60;;;1.40;99.90;;;;;;5074667;28;20203;-68
2021/11/26 04:08:23;;;;;;;35.67;18.55;;;1.50;99.90;;;;;;5074348;28;20204;-68
2021/11/26 04:10:50;;;;;;;26.35;17.50;;;1.40;99.90;;;;;;5074321;28;20226;-68
2021/11/26 04:13:18;;;;;;;30.92;17.27;;;1.50;99.90;;;;;;5074200;28;20200;-68
2021/11/26 04:15:45;;;;;;;31.90;19.52;;;1.40;99.90;;;;;;5074186;28;20552;-68
2021/11/26 04:18:11;;;;;;;30.33;18.05;;;1.50;99.90;;;;;;5074108;28;20559;-68
2021/11/26 04:20:38;;;;;;;28.65;17.20;;;1.40;99.90;;;;;;5074296;28;20601;-68
2021/11/26 04:23:05;;;;;;;31.40;19.48;;;1.50;99.90;;;;;;5074365;28;20200;-68
2021/11/26 04:25:31;;;;;;;35.38;19.65;;;1.50;99.90;;;;;;5073757;28;20254;-67
2021/11/26 04:27:58;;;;;;;30.80;18.17;;;1.50;99.90;;;;;;5073665;28;20203;-67
2021/11/26 04:30:27;;;;;;;32.20;18.63;;;1.50;99.90;;;;;;5073878;28;20232;-67
2021/11/26 04:32:53;;;;;;;30.45;18.70;;;1.60;99.90;;;;;;5073320;28;20646;-68
2021/11/26 04:35:21;;;;;;;30.52;18.15;;;1.60;99.90;;;;;;5073603;28;20195;-67
2021/11/26 04:37:47;;;;;;;27.08;17.58;;;1.60;99.90;;;;;;5073746;28;20192;-67
2021/11/26 04:40:16;;;;;;;30.90;19.08;;;1.70;99.90;;;;;;5073983;28;20203;-67
2021/11/26 04:42:44;;;;;;;30.88;19.02;;;1.70;99.90;;;;;;5074010;28;20562;-67
2021/11/26 04:45:13;;;;;;;29.45;17.25;;;1.60;99.90;;;;;;5073740;28;20219;-67
2021/11/26 04:47:40;;;;;;;34.35;17.95;;;1.70;99.90;;;;;;5073949;28;20212;-68
2021/11/26 04:50:08;;;;;;;29.42;18.15;;;1.70;99.90;;;;;;5073357;28;20656;-67
2021/11/26 04:52:35;;;;;;;37.80;17.52;;;1.70;99.90;;;;;;5073673;28;20232;-67
2021/11/26 04:55:02;;;;;;;29.40;17.50;;;1.60;99.90;;;;;;5073406;28;20225;-67
2021/11/26 04:57:29;;;;;;;32.08;18.55;;;1.70;99.90;;;;;;5073805;28;20196;-67
2021/11/26 04:59:55;;;;;;;28.85;17.55;;;1.80;99.90;;;;;;5073372;28;20693;-67
2021/11/26 05:02:22;;;;;;;31.15;17.67;;;1.70;99.90;;;;;;5073367;28;20204;-67
2021/11/26 05:04:48;;;;;;;33.88;19.90;;;1.70;99.90;;;;;;5073231;28;20662;-67
2021/11/26 05:07:18;;;;;;;32.95;18.70;;;1.80;99.90;;;;;;5073109;28;20205;-67
2021/11/26 05:09:46;;;;;;;29.08;18.45;;;1.70;99.90;;;;;;5073074;28;20204;-67
2021/11/26 05:12:13;;;;;;;29.58;17.75;;;1.70;99.90;;;;;;5073244;28;20253;-67
2021/11/26 05:14:40;;;;;;;35.40;19.63;;;1.70;99.90;;;;;;5073325;28;20208;-68
2021/11/26 05:17:06;;;;;;;34.67;18.15;;;1.60;99.90;;;;;;5073062;28;20227;-68
2021/11/26 05:19:33;;;;;;;34.10;18.80;;;1.60;99.90;;;;;;5073075;28;20655;-67
2021/11/26 05:21:59;;;;;;;32.65;19.23;;;1.60;99.90;;;;;;5073295;28;20265;-67
2021/11/26 05:24:26;;;;;;;36.35;19.70;;;1.60;99.90;;;;;;5073364;28;20207;-66
2021/11/26 05:26:52;;;;;;;31.30;18.30;;;1.60;99.90;;;;;;5073395;28;20210;-67
2021/11/26 05:29:18;;;;;;;32.85;18.88;;;1.70;99.90;;;;;;5073371;28;20199;-66
2021/11/26 05:31:45;;;;;;;30.50;18.45;;;1.60;99.90;;;;;;5071654;28;20227;-69
2021/11/26 05:34:11;;;;;;;34.22;19.35;;;1.70;99.90;;;;;;5073503;28;20207;-67
2021/11/26 05:36:38;;;;;;;36.80;19.50;;;1.70;99.90;;;;;;5073926;28;20204;-67
2021/11/26 05:39:06;;;;;;;31.40;19.50;;;1.70;99.90;;;;;;5073618;28;20204;-67
2021/11/26 05:41:32;;;;;;;34.47;20.30;;;1.70;99.90;;;;;;5073462;28;20204;-67
2021/11/26 05:43:59;;;;;;;39.15;20.23;;;1.60;99.90;;;;;;5073271;28;20683;-67
2021/11/26 05:46:25;;;;;;;38.67;21.65;;;1.70;99.90;;;;;;5072014;28;20208;-68
2021/11/26 05:48:52;;;;;;;33.88;21.25;;;1.60;99.90;;;;;;5072836;28;20207;-68
2021/11/26 05:51:18;;;;;;;36.92;20.50;;;1.60;99.90;;;;;;5076989;28;20212;-68
2021/11/26 05:53:45;;;;;;;31.33;19.00;;;1.60;99.90;;;;;;5077182;28;20767;-68
2021/11/26 05:56:11;;;;;;;36.50;21.65;;;1.60;99.90;;;;;;5077200;28;20199;-68
2021/11/26 05:58:39;;;;;;;32.60;21.42;;;1.60;99.90;;;;;;5059113;28;20626;-68
2021/11/26 06:01:06;;;;;;;33.00;21.15;;;1.60;99.90;;;;;;5077084;28;20200;-68
2021/11/26 06:03:32;;;;;;;36.80;21.42;;;1.60;99.90;;;;;;5077230;28;20196;-68
2021/11/26 06:05:59;;;;;;;36.40;20.65;;;1.60;99.90;;;;;;5076979;28;20192;-68
2021/11/26 06:08:27;;;;;;;34.28;21.35;;;1.60;99.90;;;;;;5076892;28;20222;-68
2021/11/26 06:10:55;;;;;;;35.45;20.98;;;1.60;99.90;;;;;;5075111;28;20265;-68
2021/11/26 06:13:21;;;;;;;35.42;20.67;;;1.50;99.90;;;;;;5076789;28;20225;-68
2021/11/26 06:15:48;;;;;;;38.30;21.35;;;1.50;99.90;;;;;;5075434;28;20614;-68
2021/11/26 06:18:14;;;;;;;39.35;24.50;;;1.50;99.90;;;;;;5076734;28;20196;-68
2021/11/26 06:20:41;;;;;;;36.67;21.60;;;1.40;99.90;;;;;;5076949;28;20192;-68
2021/11/26 06:23:08;;;;;;;31.05;19.30;;;1.50;99.90;;;;;;5076477;28;20200;-68
2021/11/26 06:25:34;;;;;;;39.25;22.48;;;1.60;99.90;;;;;;5076541;28;20211;-68
2021/11/26 06:28:01;;;;;;;38.55;22.77;;;1.60;99.90;;;;;;5076200;28;20212;-67
2021/11/26 06:30:28;;;;;;;36.97;22.40;;;1.60;99.90;;;;;;5076559;28;20233;-67
2021/11/26 06:32:55;;;;;;;35.08;20.70;;;1.60;99.90;;;;;;5076407;28;20230;-67
2021/11/26 06:35:24;;;;;;;46.90;22.52;;;1.60;99.90;;;;;;5076345;28;20267;-67
2021/11/26 06:37:52;;;;;;;42.88;22.88;;;1.60;99.90;;;;;;5076414;28;20200;-68
2021/11/26 06:40:20;;;;;;;39.47;23.85;;;1.60;99.90;;;;;;5076306;28;20203;-68
2021/11/26 06:42:47;;;;;;;38.55;22.63;;;1.60;99.90;;;;;;5076587;28;20204;-69
2021/11/26 06:45:14;;;;;;;41.10;22.55;;;1.60;99.90;;;;;;5074902;28;20200;-67
2021/11/26 06:47:41;;;;;;;40.00;23.92;;;1.60;99.90;;;;;;5076764;28;20659;-68
2021/11/26 06:50:10;;;;;;;37.72;22.73;;;1.60;99.90;;;;;;5076038;28;20232;-68
2021/11/26 06:52:38;;;;;;;43.40;23.48;;;1.50;99.90;;;;;;5076019;28;20220;-68
2021/11/26 06:55:07;;;;;;;41.60;22.80;;;1.50;99.90;;;;;;5075901;28;20212;-68
2021/11/26 06:57:35;;;;;;;41.00;25.10;;;1.50;99.90;;;;;;5076032;28;20659;-69
2021/11/26 07:00:04;;;;;;;45.38;26.23;;;1.50;99.90;;;;;;5075913;28;20203;-68
2021/11/26 07:02:30;;;;;;;40.03;25.45;;;1.50;99.90;;;;;;5076017;28;20208;-68
2021/11/26 07:04:57;;;;;;;41.45;24.40;;;1.50;99.90;;;;;;5076228;28;20651;-68
2021/11/26 07:07:23;;;;;;;39.95;23.75;;;1.50;99.90;;;;;;5075826;28;20200;-67
2021/11/26 07:09:50;;;;;;;44.03;24.98;;;1.50;99.90;;;;;;5074325;28;20207;-67
2021/11/26 07:12:16;;;;;;;39.10;24.17;;;1.50;99.90;;;;;;5074357;28;20485;-67
2021/11/26 07:14:46;;;;;;;44.80;25.83;;;1.40;99.90;;;;;;5075985;28;20200;-67
2021/11/26 07:17:14;;;;;;;47.55;27.98;;;1.50;99.90;;;;;;5075665;28;20199;-68
2021/11/26 07:19:43;;;;;;;43.78;27.02;;;1.50;99.90;;;;;;5075577;28;20562;-67
2021/11/26 07:22:10;;;;;;;41.17;25.33;;;1.60;99.90;;;;;;5075426;28;20234;-67
2021/11/26 07:24:36;;;;;;;48.65;28.02;;;1.50;99.90;;;;;;5075308;28;20211;-67
2021/11/26 07:27:03;;;;;;;50.22;28.23;;;1.60;99.90;;;;;;5074393;28;20204;-68
2021/11/26 07:29:29;;;;;;;49.00;27.35;;;1.60;99.90;;;;;;5074317;28;20207;-68
2021/11/26 07:31:56;;;;;;;55.33;27.08;;;1.60;99.90;;;;;;5075578;28;20216;-68
2021/11/26 07:34:23;;;;;;;45.67;25.58;;;1.50;99.90;;;;;;5075173;28;20215;-68
2021/11/26 07:36:49;;;;;;;48.25;28.42;;;1.60;99.90;;;;;;5073753;28;20564;-67
2021/11/26 07:39:16;;;;;;;46.63;26.50;;;1.50;99.90;;;;;;5074949;28;20204;-67
2021/11/26 07:41:43;;;;;;;51.13;28.95;;;1.50;99.90;;;;;;5073537;28;20200;-67
2021/11/26 07:44:10;;;;;;;48.15;27.70;;;1.60;99.90;;;;;;5074787;28;20667;-67
2021/11/26 07:46:36;;;;;;;44.65;26.83;;;1.60;99.90;;;;;;5073805;28;20259;-68
2021/11/26 07:49:03;;;;;;;46.55;26.73;;;1.60;99.90;;;;;;5074757;28;20683;-68
2021/11/26 07:51:29;;;;;;;43.97;26.38;;;1.60;99.90;;;;;;5075014;28;20238;-68
2021/11/26 07:53:57;;;;;;;45.72;26.17;;;1.60;99.90;;;;;;5073230;28;20224;-67
2021/11/26 07:56:23;;;;;;;48.05;27.08;;;1.50;99.90;;;;;;5074776;28;20196;-67
2021/11/26 07:58:50;;;;;;;47.67;27.40;;;1.50;99.90;;;;;;5074789;28;20206;-68
2021/11/26 08:01:16;;;;;;;46.10;28.73;;;1.50;99.90;;;;;;5074675;28;20214;-67
2021/11/26 08:03:43;;;;;;;57.90;26.15;;;1.50;99.90;;;;;;5074870;28;20200;-67
2021/11/26 08:06:10;;;;;;;46.72;28.35;;;1.50;99.90;;;;;;5074634;28;20257;-67
2021/11/26 08:08:36;;;;;;;54.20;29.50;;;1.50;99.90;;;;;;5074617;28;20574;-67
2021/11/26 08:11:03;;;;;;;51.10;27.52;;;1.50;99.90;;;;;;5072565;28;20200;-67
2021/11/26 08:13:30;;;;;;;43.55;25.25;;;1.50;99.90;;;;;;5074165;28;20675;-68
2021/11/26 08:15:56;;;;;;;51.97;29.45;;;1.50;99.90;;;;;;5074621;28;20203;-68
2021/11/26 08:18:23;;;;;;;50.20;28.75;;;1.50;99.90;;;;;;5073110;28;20257;-68
2021/11/26 08:20:49;;;;;;;51.28;28.60;;;1.50;99.90;;;;;;5072837;28;20208;-68
2021/11/26 08:23:15;;;;;;;54.55;29.00;;;1.50;99.90;;;;;;5073316;28;20214;-68
2021/11/26 08:25:42;;;;;;;49.25;30.02;;;1.50;99.90;;;;;;5072862;28;20211;-68
2021/11/26 08:28:08;;;;;;;54.92;30.35;;;1.40;99.90;;;;;;5074052;28;20203;-67
2021/11/26 08:30:35;;;;;;;61.45;31.17;;;1.50;99.90;;;;;;5074078;28;20208;-69
2021/11/26 08:33:01;;;;;;;58.25;33.03;;;1.50;99.90;;;;;;5074512;28;20671;-69
2021/11/26 08:35:28;;;;;;;58.40;31.17;;;1.50;99.90;;;;;;5074118;28;20689;-68
2021/11/26 08:37:55;;;;;;;57.92;32.33;;;1.60;99.90;;;;;;5073900;28;20200;-68
2021/11/26 08:40:21;;;;;;;59.38;31.65;;;1.70;99.90;;;;;;5072585;28;20192;-68
2021/11/26 08:42:48;;;;;;;60.30;31.77;;;1.70;99.90;;;;;;5073966;28;20204;-68
2021/11/26 08:45:15;;;;;;;57.03;31.27;;;1.80;99.90;;;;;;5073755;28;20200;-68
2021/11/26 08:47:42;;;;;;;55.88;31.45;;;1.80;99.90;;;;;;5073637;28;20675;-69
2021/11/26 08:50:13;;;;;;;48.92;30.85;;;1.80;99.90;;;;;;5058464;28;20637;-69
2021/11/26 08:52:42;;;;;;;60.33;33.95;;;1.80;99.90;;;;;;5053822;28;20224;-68
2021/11/26 08:55:13;;;;;;;60.38;34.55;;;1.70;99.90;;;;;;5053486;28;20196;-68
2021/11/26 08:57:42;;;;;;;56.17;33.22;;;1.60;99.90;;;;;;5054009;28;20192;-68
2021/11/26 09:00:09;;;;;;;56.45;31.67;;;1.60;99.90;;;;;;5053494;28;20642;-68
2021/11/26 09:02:36;;;;;;;60.58;32.03;;;1.50;99.90;;;;;;5053442;28;20204;-68
2021/11/26 09:05:03;;;;;;;57.92;33.63;;;1.60;99.90;;;;;;5053378;28;20205;-69
2021/11/26 09:07:30;;;;;;;55.40;31.52;;;1.80;99.90;;;;;;5053763;28;20200;-69
2021/11/26 09:09:56;;;;;;;59.65;33.88;;;1.90;99.90;;;;;;5053511;28;20205;-69
2021/11/26 09:12:25;;;;;;;55.28;32.88;;;1.90;99.90;;;;;;5053170;28;20699;-69
2021/11/26 09:14:51;;;;;;;58.92;32.00;;;2.10;99.90;;;;;;5053791;28;20717;-67
2021/11/26 09:17:19;;;;;;;57.95;31.52;;;2.20;99.90;;;;;;5053158;28;20205;-67
2021/11/26 09:19:46;;;;;;;55.15;31.55;;;2.20;99.90;;;;;;5053461;28;20197;-68
2021/11/26 09:22:13;;;;;;;49.70;30.08;;;2.30;99.90;;;;;;5052973;28;20668;-68
2021/11/26 09:24:39;;;;;;;57.55;32.17;;;2.30;99.90;;;;;;5053101;28;20664;-67
2021/11/26 09:27:06;;;;;;;52.28;32.28;;;2.50;99.90;;;;;;5053282;28;20204;-68
2021/11/26 09:29:32;;;;;;;46.67;29.48;;;2.60;99.90;;;;;;5053149;28;20664;-67
2021/11/26 09:32:01;;;;;;;49.38;29.05;;;2.40;99.90;;;;;;5052914;28;20224;-67
2021/11/26 09:34:28;;;;;;;58.03;29.40;;;2.60;99.90;;;;;;5052925;28;20200;-68
2021/11/26 09:36:56;;;;;;;47.25;30.33;;;2.70;99.90;;;;;;5051771;28;20205;-68
2021/11/26 09:39:23;;;;;;;55.42;30.30;;;2.70;99.90;;;;;;5052968;28;20209;-68
2021/11/26 09:41:49;;;;;;;51.15;27.85;;;2.80;99.90;;;;;;5051940;28;20679;-69
2021/11/26 09:44:17;;;;;;;57.22;31.00;;;2.90;99.90;;;;;;5053028;28;20200;-68
2021/11/26 09:46:46;;;;;;;53.05;29.23;;;3.00;99.90;;;;;;5053133;28;20254;-68
2021/11/26 09:49:12;;;;;;;52.65;30.80;;;3.00;99.90;;;;;;5053047;28;20291;-68
2021/11/26 09:51:39;;;;;;;48.75;28.65;;;3.10;99.90;;;;;;5035007;28;20197;-67
2021/11/26 09:54:06;;;;;;;59.33;31.35;;;3.00;99.90;;;;;;5053163;28;20609;-67
2021/11/26 09:56:34;;;;;;;48.40;27.65;;;3.10;99.90;;;;;;5053117;28;20213;-67
2021/11/26 09:59:01;;;;;;;48.20;29.30;;;2.90;99.90;;;;;;5052761;28;20258;-68
2021/11/26 10:01:28;;;;;;;48.63;31.17;;;2.90;99.90;;;;;;5051659;28;20208;-68
2021/11/26 10:03:55;;;;;;;51.38;32.03;;;2.90;99.90;;;;;;5053002;28;20212;-68
2021/11/26 10:06:38;;;;;;;52.67;29.52;;;2.80;99.90;;;;;;5053067;28;20208;-67
2021/11/26 10:09:32;;;;;;;50.22;28.92;;;2.90;99.90;;;;;;5052703;28;20624;-68
2021/11/26 10:12:04;;;;;;;45.90;28.33;;;2.80;99.90;;;;;;5049306;28;20208;-67
2021/11/26 10:14:34;;;;;;;51.75;29.35;;;2.90;99.90;;;;;;5053008;28;20230;-67
2021/11/26 10:17:14;;;;;;;47.40;29.02;;;3.00;99.90;;;;;;5052987;28;20222;-68
2021/11/26 10:19:42;;;;;;;53.72;29.90;;;3.00;99.90;;;;;;5052589;28;20196;-68
2021/11/26 10:22:17;;;;;;;58.05;30.75;;;3.00;99.90;;;;;;5051304;28;20205;-67
2021/11/26 10:25:05;;;;;;;52.00;30.55;;;3.00;99.90;;;;;;5052735;28;20211;-68
2021/11/26 10:27:56;;;;;;;56.38;32.15;;;3.00;99.90;;;;;;5052387;28;20672;-68
2021/11/26 10:30:35;;;;;;;56.33;30.85;;;3.00;99.90;;;;;;5052821;28;20200;-69
2021/11/26 10:33:06;;;;;;;55.22;31.40;;;3.00;99.90;;;;;;5052678;28;20231;-69
2021/11/26 10:35:37;;;;;;;55.17;30.17;;;3.00;99.90;;;;;;5055186;28;20264;-68
2021/11/26 10:38:11;;;;;;;58.53;32.22;;;2.90;99.90;;;;;;5056400;28;20196;-68
2021/11/26 10:40:45;;;;;;;56.40;31.70;;;3.00;99.90;;;;;;5056426;28;20201;-68
2021/11/26 10:43:18;;;;;;;51.50;29.73;;;3.10;99.90;;;;;;5056202;28;20206;-68
2021/11/26 10:48:50;;;;;;;54.45;29.92;;;3.10;99.90;;;;;;5054527;28;20201;-68
2021/11/26 10:59:24;;;;;;;59.45;27.17;;;3.00;99.90;;;;;;5055909;28;20193;-68
2021/11/26 11:01:50;;;;;;;55.58;31.23;;;3.10;99.90;;;;;;5055891;28;20180;-68
2021/11/26 11:04:23;;;;;;;58.97;30.52;;;3.10;99.90;;;;;;5055907;28;20197;-68
2021/11/26 11:07:09;;;;;;;56.30;31.00;;;3.10;99.90;;;;;;5056114;28;20604;-68
2021/11/26 11:09:50;;;;;;;64.18;32.85;;;3.10;99.90;;;;;;5055715;28;20621;-68
2021/11/26 11:12:17;;;;;;;52.25;30.42;;;3.10;99.90;;;;;;5055528;28;20205;-68
2021/11/26 11:14:55;;;;;;;50.65;27.80;;;3.00;99.90;;;;;;5056199;28;20258;-67
2021/11/26 11:17:27;;;;;;;56.45;31.20;;;3.10;99.90;;;;;;5055493;28;20204;-67
2021/11/26 11:19:57;;;;;;;55.65;30.92;;;3.20;99.90;;;;;;5055530;28;20250;-68
2021/11/26 11:22:25;;;;;;;58.83;33.53;;;3.20;99.90;;;;;;5055576;28;20265;-68
2021/11/26 11:24:53;;;;;;;54.33;31.58;;;3.30;99.90;;;;;;5055288;28;20665;-68
2021/11/26 11:27:20;;;;;;;54.33;31.30;;;3.30;99.90;;;;;;5055417;28;20625;-68
2021/11/26 11:29:47;;;;;;;56.33;29.23;;;3.30;99.90;;;;;;5055111;28;20552;-68
2021/11/26 11:32:13;;;;;;;48.50;30.90;;;3.20;99.90;;;;;;5055082;28;20213;-68
2021/11/26 11:34:41;;;;;;;47.90;28.30;;;3.30;99.90;;;;;;5055320;28;20211;-68
2021/11/26 11:37:10;;;;;;;51.58;30.85;;;3.30;99.90;;;;;;5054948;28;20200;-68
2021/11/26 11:39:50;;;;;;;51.72;29.20;;;3.30;99.90;;;;;;5055493;28;20212;-68
2021/11/26 11:42:31;;;;;;;52.05;29.23;;;3.30;99.90;;;;;;5054788;28;20200;-68
2021/11/26 11:45:07;;;;;;;50.80;30.42;;;3.40;99.90;;;;;;5054988;28;20242;-68
2021/11/26 11:47:34;;;;;;;47.42;28.52;;;3.40;99.90;;;;;;5054368;28;20200;-68
2021/11/26 11:50:19;;;;;;;48.90;27.38;;;3.60;99.90;;;;;;5055017;28;20233;-68
2021/11/26 11:52:57;;;;;;;50.40;28.52;;;3.40;99.90;;;;;;5054445;28;20221;-67
2021/11/26 11:55:39;;;;;;;51.05;28.63;;;3.50;99.90;;;;;;5068846;28;20207;-68
2021/11/26 11:58:14;;;;;;;50.05;26.38;;;3.50;99.90;;;;;;5074626;28;20575;-67
2021/11/26 12:00:43;;;;;;;46.20;26.92;;;3.70;99.90;;;;;;5075008;28;20203;-69
2021/11/26 12:03:13;;;;;;;46.28;27.85;;;3.60;99.90;;;;;;5074763;28;20234;-68
2021/11/26 12:05:42;;;;;;;41.45;24.17;;;3.70;99.90;;;;;;5054356;28;20216;-68
2021/11/26 12:08:08;;;;;;;45.53;26.23;;;3.70;99.90;;;;;;5054319;28;20204;-68
2021/11/26 12:10:52;;;;;;;42.22;26.90;;;3.50;99.90;;;;;;5054207;28;20553;-68
2021/11/26 12:13:31;;;;;;;48.63;29.30;;;3.50;99.90;;;;;;5054692;28;20204;-68
2021/11/26 12:16:08;;;;;;;51.95;27.80;;;3.50;99.90;;;;;;5054595;28;20197;-69
2021/11/26 12:18:48;;;;;;;44.65;24.33;;;3.50;99.90;;;;;;5054351;28;20644;-68
2021/11/26 12:21:28;;;;;;;44.90;26.60;;;3.60;99.90;;;;;;5054392;28;20249;-68
2021/11/26 12:26:48;;;;;;;49.10;28.17;;;3.60;99.90;;;;;;5054049;28;20184;-68
2021/11/26 12:29:15;;;;;;;51.33;29.95;;;3.60;99.90;;;;;;5054015;28;20185;-69
2021/11/26 12:31:42;;;;;;;50.22;28.80;;;3.40;99.90;;;;;;5055784;28;20201;-68
2021/11/26 12:34:15;;;;;;;51.45;27.15;;;3.50;99.90;;;;;;5054710;28;20229;-68
2021/11/26 12:36:45;;;;;;;53.47;29.17;;;3.50;99.90;;;;;;5054186;28;20216;-68
2021/11/26 12:39:30;;;;;;;51.67;31.50;;;3.60;99.90;;;;;;5054670;28;20204;-69
2021/11/26 12:41:59;;;;;;;49.78;28.67;;;3.50;99.90;;;;;;5053927;28;20602;-68
2021/11/26 12:44:32;;;;;;;51.83;30.20;;;3.60;99.90;;;;;;5054069;28;20620;-68
2021/11/26 12:47:11;;;;;;;51.33;27.52;;;3.60;99.90;;;;;;5054035;28;20222;-68
2021/11/26 12:52:12;;;;;;;44.40;27.63;;;3.60;99.90;;;;;;5053785;28;20208;-68
2021/11/26 12:54:44;;;;;;;51.30;29.33;;;3.60;99.90;;;;;;5053573;28;20228;-68
2021/11/26 12:57:25;;;;;;;47.03;27.45;;;3.60;99.90;;;;;;5053622;28;20199;-68
2021/11/26 12:59:56;;;;;;;54.90;30.35;;;3.60;99.90;;;;;;5054231;28;20593;-68